createdAt,value
2017-05-11T00:00:26.859Z,10.44
2017-05-11T00:01:35.813Z,10.51
2017-05-11T00:02:45.105Z,10.53
2017-05-11T00:03:54.061Z,10.47
2017-05-11T00:05:03.016Z,10.51
2017-05-11T00:06:11.972Z,10.55
2017-05-11T00:07:20.923Z,10.48
2017-05-11T00:08:30.165Z,10.48
2017-05-11T00:09:39.124Z,10.48
2017-05-11T00:10:48.084Z,10.51
2017-05-11T00:11:57.037Z,10.55
2017-05-11T00:13:05.991Z,10.47
2017-05-11T00:14:15.201Z,10.51
2017-05-11T00:15:24.333Z,10.41
2017-05-11T00:16:33.611Z,10.47
2017-05-11T00:17:42.570Z,10.36
2017-05-11T00:18:51.612Z,10.34
2017-05-11T00:20:00.817Z,10.36
2017-05-11T00:21:10.099Z,10.27
2017-05-11T00:22:19.060Z,10.33
2017-05-11T00:23:28.016Z,10.3
2017-05-11T00:24:36.971Z,10.33
2017-05-11T00:25:46.220Z,10.29
2017-05-11T00:26:55.174Z,10.36
2017-05-11T00:28:04.132Z,10.33
2017-05-11T00:29:13.506Z,10.26
2017-05-11T00:30:22.636Z,10.22
2017-05-11T00:31:31.927Z,10.27
2017-05-11T00:32:40.887Z,10.29
2017-05-11T00:33:49.843Z,10.2
2017-05-11T00:34:58.800Z,10.18
2017-05-11T00:36:07.757Z,10.22
2017-05-11T00:37:16.959Z,10.18
2017-05-11T00:38:26.001Z,10.23
2017-05-11T00:39:34.957Z,10.22
2017-05-11T00:40:43.913Z,10.2
2017-05-11T00:41:52.869Z,10.18
2017-05-11T00:43:02.077Z,10.23
2017-05-11T00:44:11.032Z,10.12
2017-05-11T00:45:19.990Z,10.12
2017-05-11T00:46:28.940Z,10.14
2017-05-11T00:47:37.893Z,10.05
2017-05-11T00:48:47.100Z,10.07
2017-05-11T00:49:56.058Z,10.12
2017-05-11T00:51:05.009Z,9.97
2017-05-11T00:52:13.965Z,9.9
2017-05-11T00:53:22.921Z,9.89
2017-05-11T00:54:32.130Z,9.84
2017-05-11T00:55:41.084Z,9.83
2017-05-11T00:56:50.038Z,9.78
2017-05-11T00:57:59.212Z,9.86
2017-05-11T00:59:08.171Z,9.78
2017-05-11T01:00:17.384Z,9.76
2017-05-11T01:01:26.347Z,9.68
2017-05-11T01:02:35.300Z,9.64
2017-05-11T01:03:44.258Z,9.66
2017-05-11T01:04:53.218Z,9.56
2017-05-11T01:06:02.432Z,9.51
2017-05-11T01:07:11.393Z,9.5
2017-05-11T01:08:20.440Z,9.51
2017-05-11T01:09:29.391Z,9.46
2017-05-11T01:10:38.346Z,9.46
2017-05-11T01:11:47.548Z,9.46
2017-05-11T01:12:56.674Z,9.51
2017-05-11T01:14:05.625Z,9.43
2017-05-11T01:15:14.575Z,9.51
2017-05-11T01:16:23.533Z,9.54
2017-05-11T01:17:32.828Z,9.51
2017-05-11T01:18:41.782Z,9.42
2017-05-11T01:19:50.737Z,9.46
2017-05-11T01:20:59.692Z,9.4
2017-05-11T01:22:08.653Z,9.43
2017-05-11T01:23:17.854Z,9.4
2017-05-11T01:24:27.143Z,9.42
2017-05-11T01:25:36.104Z,9.4
2017-05-11T01:26:45.145Z,9.39
2017-05-11T01:27:54.095Z,9.4
2017-05-11T01:29:03.300Z,9.39
2017-05-11T01:30:12.251Z,9.36
2017-05-11T01:31:21.200Z,9.33
2017-05-11T01:32:30.203Z,9.31
2017-05-11T01:33:39.155Z,9.32
2017-05-11T01:34:48.369Z,9.38
2017-05-11T01:35:57.327Z,9.33
2017-05-11T01:37:06.274Z,9.31
2017-05-11T01:38:15.320Z,9.36
2017-05-11T01:39:24.274Z,9.35
2017-05-11T01:40:33.530Z,9.38
2017-05-11T01:41:42.479Z,9.35
2017-05-11T01:42:51.436Z,9.35
2017-05-11T01:44:00.388Z,9.38
2017-05-11T01:45:09.346Z,9.29
2017-05-11T01:46:18.601Z,9.28
2017-05-11T01:47:27.559Z,9.28
2017-05-11T01:48:36.519Z,9.36
2017-05-11T01:49:45.475Z,9.36
2017-05-11T01:50:54.564Z,9.31
2017-05-11T01:52:03.777Z,9.17
2017-05-11T01:53:12.735Z,9.21
2017-05-11T01:54:21.698Z,9.23
2017-05-11T01:55:30.659Z,9.18
2017-05-11T01:56:39.613Z,9.21
2017-05-11T01:57:48.816Z,9.15
2017-05-11T01:58:57.772Z,9.17
2017-05-11T02:00:06.726Z,9.2
2017-05-11T02:01:15.679Z,9.2
2017-05-11T02:02:24.971Z,9.14
2017-05-11T02:03:34.176Z,9.1
2017-05-11T02:04:43.133Z,9.13
2017-05-11T02:05:52.084Z,9.1
2017-05-11T02:07:01.048Z,9.08
2017-05-11T02:08:10.000Z,9.15
2017-05-11T02:09:19.204Z,9.13
2017-05-11T02:10:28.178Z,9.08
2017-05-11T02:11:37.136Z,9.11
2017-05-11T02:12:46.182Z,9.18
2017-05-11T02:13:55.137Z,9.15
2017-05-11T02:15:04.397Z,9.15
2017-05-11T02:16:13.356Z,9.05
2017-05-11T02:17:22.316Z,9.1
2017-05-11T02:18:31.368Z,9.1
2017-05-11T02:19:40.326Z,9.08
2017-05-11T02:20:49.531Z,8.99
2017-05-11T02:21:58.491Z,9.05
2017-05-11T02:23:07.441Z,8.99
2017-05-11T02:24:16.486Z,9.02
2017-05-11T02:25:25.529Z,8.92
2017-05-11T02:26:34.741Z,8.86
2017-05-11T02:27:43.693Z,8.91
2017-05-11T02:28:52.648Z,9.01
2017-05-11T02:30:01.693Z,8.99
2017-05-11T02:31:10.652Z,8.99
2017-05-11T02:32:19.858Z,9.02
2017-05-11T02:33:28.822Z,9.01
2017-05-11T02:34:37.778Z,9.04
2017-05-11T02:35:46.732Z,8.98
2017-05-11T02:36:55.685Z,8.99
2017-05-11T02:38:04.903Z,8.98
2017-05-11T02:39:13.853Z,9.04
2017-05-11T02:40:22.809Z,8.98
2017-05-11T02:41:31.756Z,8.99
2017-05-11T02:42:40.717Z,8.89
2017-05-11T02:43:50.014Z,8.94
2017-05-11T02:44:58.973Z,8.94
2017-05-11T02:46:08.254Z,8.95
2017-05-11T02:47:17.209Z,8.92
2017-05-11T02:48:26.221Z,8.84
2017-05-11T02:49:35.425Z,8.84
2017-05-11T02:50:44.389Z,8.71
2017-05-11T02:51:53.343Z,8.8
2017-05-11T02:53:02.301Z,8.79
2017-05-11T02:54:11.261Z,8.84
2017-05-11T02:55:20.460Z,8.74
2017-05-11T02:56:29.414Z,8.71
2017-05-11T02:57:38.378Z,8.66
2017-05-11T02:58:47.654Z,8.62
2017-05-11T02:59:56.614Z,8.62
2017-05-11T03:01:05.871Z,8.61
2017-05-11T03:02:14.825Z,8.68
2017-05-11T03:03:23.789Z,8.7
2017-05-11T03:04:32.745Z,8.74
2017-05-11T03:05:41.782Z,8.86
2017-05-11T03:06:51.121Z,8.84
2017-05-11T03:08:00.093Z,8.8
2017-05-11T03:09:09.057Z,8.8
2017-05-11T03:10:18.092Z,8.8
2017-05-11T03:11:27.045Z,8.89
2017-05-11T03:12:36.303Z,8.84
2017-05-11T03:13:45.264Z,8.79
2017-05-11T03:14:54.224Z,8.73
2017-05-11T03:16:03.178Z,8.79
2017-05-11T03:17:12.137Z,8.8
2017-05-11T03:18:21.348Z,8.79
2017-05-11T03:19:30.318Z,8.76
2017-05-11T03:20:39.267Z,8.71
2017-05-11T03:21:48.221Z,8.76
2017-05-11T03:22:57.179Z,8.7
2017-05-11T03:24:06.509Z,8.81
2017-05-11T03:25:15.552Z,8.71
2017-05-11T03:26:24.514Z,8.74
2017-05-11T03:27:33.463Z,8.77
2017-05-11T03:28:42.421Z,8.74
2017-05-11T03:29:51.711Z,8.8
2017-05-11T03:31:00.670Z,8.76
2017-05-11T03:32:09.630Z,8.83
2017-05-11T03:33:18.669Z,8.73
2017-05-11T03:34:27.619Z,8.83
2017-05-11T03:35:36.823Z,8.84
2017-05-11T03:36:45.774Z,8.86
2017-05-11T03:37:54.727Z,8.96
2017-05-11T03:39:03.680Z,8.84
2017-05-11T03:40:12.638Z,8.79
2017-05-11T03:41:22.170Z,8.83
2017-05-11T03:42:31.125Z,8.87
2017-05-11T03:43:40.085Z,8.89
2017-05-11T03:44:49.042Z,8.96
2017-05-11T03:45:58.035Z,8.96
2017-05-11T03:47:07.238Z,8.91
2017-05-11T03:48:16.194Z,8.98
2017-05-11T03:49:25.142Z,8.87
2017-05-11T03:50:34.097Z,8.92
2017-05-11T03:51:43.051Z,9.05
2017-05-11T03:52:52.264Z,9.08
2017-05-11T03:54:01.223Z,9.13
2017-05-11T03:55:10.177Z,9.14
2017-05-11T03:56:19.460Z,9.13
2017-05-11T03:57:28.409Z,9.17
2017-05-11T03:58:37.667Z,9.18
2017-05-11T03:59:46.716Z,9.21
2017-05-11T04:00:55.668Z,9.17
2017-05-11T04:02:04.959Z,9.18
2017-05-11T04:03:13.917Z,9.2
2017-05-11T04:04:23.131Z,9.24
2017-05-11T04:05:32.084Z,9.21
2017-05-11T04:06:41.032Z,9.26
2017-05-11T04:07:49.986Z,9.29
2017-05-11T04:08:58.944Z,9.33
2017-05-11T04:10:08.147Z,9.36
2017-05-11T04:11:17.102Z,9.42
2017-05-11T04:12:26.057Z,9.39
2017-05-11T04:13:35.011Z,9.46
2017-05-11T04:14:43.967Z,9.46
2017-05-11T04:15:53.263Z,9.43
2017-05-11T04:17:02.218Z,9.46
2017-05-11T04:18:11.167Z,9.42
2017-05-11T04:19:20.123Z,9.5
2017-05-11T04:20:29.080Z,9.46
2017-05-11T04:21:38.288Z,9.46
2017-05-11T04:22:47.238Z,9.53
2017-05-11T04:23:56.197Z,9.56
2017-05-11T04:25:05.149Z,9.53
2017-05-11T04:26:14.101Z,9.53
2017-05-11T04:27:23.310Z,9.6
2017-05-11T04:28:32.267Z,9.61
2017-05-11T04:29:41.308Z,9.6
2017-05-11T04:30:50.355Z,9.66
2017-05-11T04:31:59.310Z,9.65
2017-05-11T04:33:08.571Z,9.51
2017-05-11T04:34:17.523Z,9.6
2017-05-11T04:35:26.797Z,9.68
2017-05-11T04:36:35.750Z,9.69
2017-05-11T04:37:44.912Z,9.61
2017-05-11T04:38:54.127Z,9.6
2017-05-11T04:40:03.081Z,9.61
2017-05-11T04:41:12.036Z,9.53
2017-05-11T04:42:20.993Z,9.51
2017-05-11T04:43:30.031Z,9.5
2017-05-11T04:44:39.292Z,9.51
2017-05-11T04:45:48.248Z,9.58
2017-05-11T04:46:57.196Z,9.65
2017-05-11T04:48:06.158Z,9.66
2017-05-11T04:49:15.255Z,9.66
2017-05-11T04:50:24.522Z,9.71
2017-05-11T04:51:33.477Z,9.69
2017-05-11T04:52:42.440Z,9.75
2017-05-11T04:53:51.400Z,9.87
2017-05-11T04:55:00.361Z,9.83
2017-05-11T04:56:09.652Z,9.75
2017-05-11T04:57:18.694Z,9.81
2017-05-11T04:58:27.989Z,9.84
2017-05-11T04:59:37.033Z,9.86
2017-05-11T05:00:45.986Z,9.84
2017-05-11T05:01:55.189Z,9.89
2017-05-11T05:03:04.151Z,9.89
2017-05-11T05:04:13.107Z,9.96
2017-05-11T05:05:22.065Z,9.97
2017-05-11T05:06:31.021Z,10.07
2017-05-11T05:07:40.227Z,10.12
2017-05-11T05:08:49.190Z,10.17
2017-05-11T05:09:58.228Z,10.2
2017-05-11T05:11:07.192Z,10.25
2017-05-11T05:12:16.156Z,10.26
2017-05-11T05:13:25.458Z,10.33
2017-05-11T05:14:34.413Z,10.26
2017-05-11T05:15:43.398Z,10.29
2017-05-11T05:16:52.358Z,10.25
2017-05-11T05:18:01.307Z,10.26
2017-05-11T05:19:10.511Z,10.25
2017-05-11T05:20:19.793Z,10.32
2017-05-11T05:21:28.755Z,10.25
2017-05-11T05:22:37.711Z,10.23
2017-05-11T05:23:46.678Z,10.22
2017-05-11T05:24:55.884Z,10.33
2017-05-11T05:26:04.843Z,10.3
2017-05-11T05:27:14.123Z,10.34
2017-05-11T05:28:23.075Z,10.51
2017-05-11T05:29:32.125Z,10.51
2017-05-11T05:30:41.413Z,10.48
2017-05-11T05:31:50.369Z,10.51
2017-05-11T05:32:59.335Z,10.45
2017-05-11T05:34:08.290Z,10.61
2017-05-11T05:35:17.253Z,10.61
2017-05-11T05:36:26.454Z,10.66
2017-05-11T05:37:35.416Z,10.6
2017-05-11T05:38:44.372Z,10.66
2017-05-11T05:39:53.336Z,10.51
2017-05-11T05:41:02.301Z,10.51
2017-05-11T05:42:11.934Z,10.61
2017-05-11T05:43:20.905Z,10.61
2017-05-11T05:44:29.995Z,10.59
2017-05-11T05:45:38.943Z,10.64
2017-05-11T05:46:47.899Z,10.74
2017-05-11T05:47:57.105Z,10.68
2017-05-11T05:49:06.054Z,10.71
2017-05-11T05:50:15.099Z,10.68
2017-05-11T05:51:24.050Z,10.67
2017-05-11T05:52:33.010Z,10.67
2017-05-11T05:53:42.305Z,10.76
2017-05-11T05:54:51.346Z,10.81
2017-05-11T05:56:00.298Z,10.81
2017-05-11T05:57:09.593Z,10.85
2017-05-11T05:58:18.639Z,10.86
2017-05-11T05:59:27.843Z,10.91
2017-05-11T06:00:36.797Z,10.99
2017-05-11T06:01:45.748Z,11.04
2017-05-11T06:02:54.710Z,11.11
2017-05-11T06:04:03.675Z,11.1
2017-05-11T06:05:12.879Z,11.09
2017-05-11T06:06:21.837Z,11.18
2017-05-11T06:07:30.961Z,11.15
2017-05-11T06:08:39.915Z,11.19
2017-05-11T06:09:49.005Z,11.21
2017-05-11T06:10:58.261Z,11.18
2017-05-11T06:12:07.859Z,11.24
2017-05-11T06:13:17.901Z,11.25
2017-05-11T06:14:27.366Z,11.32
2017-05-11T06:15:36.411Z,11.28
2017-05-11T06:16:45.935Z,11.33
2017-05-11T06:17:59.909Z,11.33
2017-05-11T06:19:09.071Z,11.37
2017-05-11T06:20:18.246Z,11.36
2017-05-11T06:21:29.983Z,11.36
2017-05-11T06:22:39.190Z,11.47
2017-05-11T06:23:56.655Z,11.54
2017-05-11T06:25:10.139Z,11.57
2017-05-11T06:26:24.793Z,11.61
2017-05-11T06:27:36.254Z,11.61
2017-05-11T06:28:45.331Z,11.57
2017-05-11T06:29:54.289Z,11.67
2017-05-11T06:31:03.365Z,11.7
2017-05-11T06:32:12.484Z,11.73
2017-05-11T06:33:21.994Z,11.76
2017-05-11T06:34:31.098Z,11.83
2017-05-11T06:35:40.380Z,11.85
2017-05-11T06:36:49.440Z,11.86
2017-05-11T06:37:58.646Z,11.9
2017-05-11T06:39:08.108Z,11.99
2017-05-11T06:40:17.182Z,11.98
2017-05-11T06:41:26.154Z,11.96
2017-05-11T06:42:35.111Z,11.98
2017-05-11T06:43:44.084Z,11.98
2017-05-11T06:44:53.384Z,12.07
2017-05-11T06:46:02.366Z,12.1
2017-05-11T06:47:11.327Z,12.13
2017-05-11T06:48:20.291Z,12.23
2017-05-11T06:49:29.247Z,12.19
2017-05-11T06:50:38.457Z,12.28
2017-05-11T06:51:47.537Z,12.37
2017-05-11T06:52:56.503Z,12.32
2017-05-11T06:54:05.644Z,12.37
2017-05-11T06:55:15.059Z,12.38
2017-05-11T06:56:24.598Z,12.45
2017-05-11T06:57:33.741Z,12.53
2017-05-11T06:58:42.793Z,12.49
2017-05-11T06:59:52.709Z,12.54
2017-05-11T07:01:01.669Z,12.54
2017-05-11T07:02:10.959Z,12.67
2017-05-11T07:03:19.914Z,12.68
2017-05-11T07:04:29.016Z,12.7
2017-05-11T07:05:38.445Z,12.75
2017-05-11T07:06:47.399Z,12.74
2017-05-11T07:07:56.616Z,12.71
2017-05-11T07:09:05.756Z,12.68
2017-05-11T07:10:15.544Z,12.77
2017-05-11T07:11:24.495Z,12.79
2017-05-11T07:12:33.456Z,12.86
2017-05-11T07:13:42.709Z,12.9
2017-05-11T07:14:51.953Z,12.87
2017-05-11T07:16:00.910Z,12.87
2017-05-11T07:17:09.956Z,12.86
2017-05-11T07:18:18.927Z,12.92
2017-05-11T07:19:28.334Z,12.95
2017-05-11T07:20:37.397Z,13
2017-05-11T07:21:46.352Z,13.04
2017-05-11T07:22:55.393Z,13.14
2017-05-11T07:24:05.293Z,13.22
2017-05-11T07:25:14.802Z,13.2
2017-05-11T07:26:23.766Z,13.2
2017-05-11T07:27:32.809Z,13.2
2017-05-11T07:28:42.742Z,13.2
2017-05-11T07:29:52.530Z,13.26
2017-05-11T07:31:02.414Z,13.23
2017-05-11T07:32:11.718Z,13.17
2017-05-11T07:33:20.697Z,13.25
2017-05-11T07:34:29.676Z,13.26
2017-05-11T07:35:38.744Z,13.25
2017-05-11T07:36:48.028Z,13.2
2017-05-11T07:37:57.013Z,13.25
2017-05-11T07:39:06.000Z,13.28
2017-05-11T07:40:15.143Z,13.26
2017-05-11T07:41:24.457Z,13.44
2017-05-11T07:42:33.697Z,13.41
2017-05-11T07:43:42.678Z,13.41
2017-05-11T07:44:51.660Z,13.49
2017-05-11T07:46:00.644Z,13.52
2017-05-11T07:47:09.630Z,13.54
2017-05-11T07:48:18.997Z,13.54
2017-05-11T07:49:28.025Z,13.62
2017-05-11T07:50:37.006Z,13.62
2017-05-11T07:51:45.985Z,13.67
2017-05-11T07:52:54.976Z,13.71
2017-05-11T07:54:04.264Z,13.69
2017-05-11T07:55:13.246Z,13.75
2017-05-11T07:56:22.222Z,13.71
2017-05-11T07:57:31.205Z,13.71
2017-05-11T07:58:40.196Z,13.62
2017-05-11T07:59:49.417Z,13.71
2017-05-11T08:00:58.485Z,13.71
2017-05-11T08:02:07.471Z,13.78
2017-05-11T08:03:16.539Z,13.82
2017-05-11T08:04:25.535Z,13.82
2017-05-11T08:05:34.767Z,13.89
2017-05-11T08:06:43.747Z,13.85
2017-05-11T08:07:52.826Z,13.91
2017-05-11T08:09:01.810Z,13.99
2017-05-11T08:10:10.901Z,13.97
2017-05-11T08:11:20.265Z,14.04
2017-05-11T08:12:29.252Z,14.09
2017-05-11T08:13:38.324Z,14.06
2017-05-11T08:14:47.312Z,14.06
2017-05-11T08:15:56.310Z,14.28
2017-05-11T08:17:05.631Z,14.22
2017-05-11T08:18:14.616Z,14.42
2017-05-11T08:19:23.598Z,14.4
2017-05-11T08:20:32.585Z,14.4
2017-05-11T08:21:41.662Z,14.46
2017-05-11T08:22:50.898Z,14.5
2017-05-11T08:24:00.211Z,14.64
2017-05-11T08:25:09.190Z,14.61
2017-05-11T08:26:18.178Z,14.6
2017-05-11T08:27:27.158Z,14.69
2017-05-11T08:28:36.386Z,14.78
2017-05-11T08:29:45.356Z,14.86
2017-05-11T08:30:54.314Z,14.89
2017-05-11T08:32:03.280Z,14.77
2017-05-11T08:33:12.243Z,14.94
2017-05-11T08:34:21.801Z,15.02
2017-05-11T08:35:30.768Z,14.92
2017-05-11T08:36:40.052Z,14.99
2017-05-11T08:37:49.011Z,15.03
2017-05-11T08:38:57.971Z,15.07
2017-05-11T08:40:07.512Z,15.03
2017-05-11T08:41:16.560Z,15.1
2017-05-11T08:42:25.528Z,15.11
2017-05-11T08:43:34.562Z,15.06
2017-05-11T08:44:43.844Z,15.1
2017-05-11T08:45:53.319Z,15.06
2017-05-11T08:47:02.367Z,15.03
2017-05-11T08:48:11.330Z,15.02
2017-05-11T08:49:20.549Z,15.02
2017-05-11T08:50:29.656Z,15.02
2017-05-11T08:51:38.914Z,14.99
2017-05-11T08:52:47.950Z,14.98
2017-05-11T08:53:57.046Z,15.13
2017-05-11T08:55:06.256Z,15.13
2017-05-11T08:56:15.428Z,15.16
2017-05-11T08:57:24.875Z,15.14
2017-05-11T08:58:33.934Z,15.2
2017-05-11T08:59:42.901Z,15.17
2017-05-11T09:00:51.861Z,15.19
2017-05-11T09:02:00.818Z,15.28
2017-05-11T09:03:10.029Z,15.2
2017-05-11T09:04:18.994Z,15.17
2017-05-11T09:05:27.950Z,15.23
2017-05-11T09:06:36.915Z,15.2
2017-05-11T09:07:45.871Z,15.06
2017-05-11T09:08:55.078Z,15.07
2017-05-11T09:10:04.040Z,15.17
2017-05-11T09:11:13.091Z,15.17
2017-05-11T09:12:22.048Z,15.2
2017-05-11T09:13:31.010Z,15.23
2017-05-11T09:14:40.273Z,15.32
2017-05-11T09:15:49.233Z,15.39
2017-05-11T09:16:58.194Z,15.29
2017-05-11T09:18:07.156Z,15.32
2017-05-11T09:19:16.114Z,15.35
2017-05-11T09:20:25.383Z,15.39
2017-05-11T09:21:34.413Z,15.46
2017-05-11T09:22:43.377Z,15.43
2017-05-11T09:23:52.347Z,15.47
2017-05-11T09:25:01.303Z,15.59
2017-05-11T09:26:10.603Z,15.57
2017-05-11T09:27:19.563Z,15.6
2017-05-11T09:28:28.569Z,15.64
2017-05-11T09:29:37.529Z,15.67
2017-05-11T09:30:46.494Z,15.72
2017-05-11T09:31:55.707Z,15.72
2017-05-11T09:33:04.674Z,15.69
2017-05-11T09:34:13.634Z,15.69
2017-05-11T09:35:22.679Z,15.68
2017-05-11T09:36:31.636Z,15.67
2017-05-11T09:37:40.857Z,15.74
2017-05-11T09:38:49.813Z,15.75
2017-05-11T09:39:58.768Z,15.69
2017-05-11T09:41:07.837Z,15.68
2017-05-11T09:42:16.798Z,15.86
2017-05-11T09:43:26.044Z,15.83
2017-05-11T09:44:35.002Z,15.9
2017-05-11T09:45:43.959Z,16.04
2017-05-11T09:46:52.949Z,16.09
2017-05-11T09:48:01.928Z,16.07
2017-05-11T09:49:11.472Z,16.24
2017-05-11T09:50:20.434Z,16.2
2017-05-11T09:51:29.401Z,16.15
2017-05-11T09:52:38.361Z,16.25
2017-05-11T09:53:47.319Z,16.24
2017-05-11T09:54:56.533Z,16.3
2017-05-11T09:56:05.495Z,16.33
2017-05-11T09:57:14.543Z,16.42
2017-05-11T09:58:23.505Z,16.39
2017-05-11T09:59:32.558Z,16.45
2017-05-11T10:00:41.770Z,16.5
2017-05-11T10:01:50.738Z,16.52
2017-05-11T10:02:59.703Z,16.53
2017-05-11T10:04:08.667Z,16.56
2017-05-11T10:05:17.629Z,16.53
2017-05-11T10:06:26.925Z,16.57
2017-05-11T10:07:35.883Z,16.53
2017-05-11T10:08:44.928Z,16.75
2017-05-11T10:09:53.894Z,16.66
2017-05-11T10:11:02.857Z,16.78
2017-05-11T10:12:12.091Z,16.78
2017-05-11T10:13:21.060Z,16.78
2017-05-11T10:14:30.111Z,16.78
2017-05-11T10:15:39.074Z,16.7
2017-05-11T10:16:48.031Z,16.76
2017-05-11T10:17:57.242Z,16.76
2017-05-11T10:19:06.211Z,16.73
2017-05-11T10:20:15.168Z,16.75
2017-05-11T10:21:24.123Z,16.73
2017-05-11T10:22:33.420Z,16.82
2017-05-11T10:23:42.631Z,16.76
2017-05-11T10:24:51.592Z,16.85
2017-05-11T10:26:00.552Z,16.89
2017-05-11T10:27:09.514Z,16.89
2017-05-11T10:28:18.474Z,16.85
2017-05-11T10:29:27.775Z,16.88
2017-05-11T10:30:36.734Z,16.85
2017-05-11T10:31:45.733Z,16.94
2017-05-11T10:32:54.814Z,16.93
2017-05-11T10:34:04.102Z,16.97
2017-05-11T10:35:13.311Z,16.96
2017-05-11T10:36:22.269Z,17.04
2017-05-11T10:37:31.228Z,17.16
2017-05-11T10:38:40.192Z,17.14
2017-05-11T10:39:49.154Z,17.16
2017-05-11T10:40:58.365Z,17.12
2017-05-11T10:42:07.328Z,17.19
2017-05-11T10:43:16.377Z,17.18
2017-05-11T10:44:25.514Z,17.19
2017-05-11T10:45:34.478Z,17.21
2017-05-11T10:46:43.689Z,17.25
2017-05-11T10:47:52.652Z,17.31
2017-05-11T10:49:01.613Z,17.33
2017-05-11T10:50:10.573Z,17.41
2017-05-11T10:51:19.619Z,17.49
2017-05-11T10:52:28.916Z,17.48
2017-05-11T10:53:37.879Z,17.43
2017-05-11T10:54:46.847Z,17.54
2017-05-11T10:55:55.812Z,17.48
2017-05-11T10:57:04.867Z,17.46
2017-05-11T10:58:14.413Z,17.49
2017-05-11T10:59:23.457Z,17.51
2017-05-11T11:00:32.415Z,17.54
2017-05-11T11:01:41.376Z,17.63
2017-05-11T11:02:50.334Z,17.58
2017-05-11T11:03:59.542Z,17.7
2017-05-11T11:05:08.497Z,17.7
2017-05-11T11:06:17.781Z,17.78
2017-05-11T11:07:26.735Z,17.75
2017-05-11T11:08:35.819Z,17.74
2017-05-11T11:09:45.029Z,17.79
2017-05-11T11:10:53.991Z,17.87
2017-05-11T11:12:02.949Z,17.86
2017-05-11T11:13:11.929Z,17.81
2017-05-11T11:14:20.907Z,17.9
2017-05-11T11:15:30.116Z,18
2017-05-11T11:16:39.081Z,18.02
2017-05-11T11:17:48.130Z,18.1
2017-05-11T11:18:57.092Z,18.12
2017-05-11T11:20:06.142Z,18.15
2017-05-11T11:21:15.362Z,18.11
2017-05-11T11:22:24.327Z,18.2
2017-05-11T11:23:33.372Z,18.27
2017-05-11T11:24:42.326Z,18.29
2017-05-11T11:25:51.287Z,18.32
2017-05-11T11:27:00.552Z,18.36
2017-05-11T11:28:09.512Z,18.35
2017-05-11T11:29:18.487Z,18.35
2017-05-11T11:30:27.443Z,18.44
2017-05-11T11:31:36.400Z,18.39
2017-05-11T11:32:45.611Z,18.45
2017-05-11T11:33:54.572Z,18.47
2017-05-11T11:35:03.537Z,18.45
2017-05-11T11:36:12.495Z,18.5
2017-05-11T11:37:21.540Z,18.47
2017-05-11T11:38:30.927Z,18.52
2017-05-11T11:39:39.882Z,18.52
2017-05-11T11:40:48.850Z,18.55
2017-05-11T11:41:57.897Z,18.51
2017-05-11T11:43:06.858Z,18.63
2017-05-11T11:44:16.068Z,18.55
2017-05-11T11:45:25.031Z,18.52
2017-05-11T11:46:33.992Z,18.58
2017-05-11T11:47:42.959Z,18.63
2017-05-11T11:48:51.922Z,18.65
2017-05-11T11:50:01.177Z,18.67
2017-05-11T11:51:10.470Z,18.55
2017-05-11T11:52:19.521Z,18.57
2017-05-11T11:53:28.526Z,18.5
2017-05-11T11:54:37.508Z,18.51
2017-05-11T11:55:46.721Z,18.63
2017-05-11T11:56:55.768Z,18.62
2017-05-11T11:58:04.733Z,18.62
2017-05-11T11:59:13.701Z,18.58
2017-05-11T12:00:22.664Z,18.67
2017-05-11T12:01:31.880Z,18.69
2017-05-11T12:02:40.932Z,18.78
2017-05-11T12:03:49.897Z,18.78
2017-05-11T12:04:59.180Z,18.81
2017-05-11T12:06:08.142Z,18.88
2017-05-11T12:07:17.357Z,18.94
2017-05-11T12:08:26.322Z,18.94
2017-05-11T12:09:35.364Z,19.07
2017-05-11T12:10:44.330Z,19.04
2017-05-11T12:11:53.292Z,19.11
2017-05-11T12:13:02.505Z,19.04
2017-05-11T12:14:12.217Z,19.16
2017-05-11T12:15:21.178Z,19.11
2017-05-11T12:16:30.196Z,19.1
2017-05-11T12:17:39.154Z,19.08
2017-05-11T12:18:48.367Z,19.21
2017-05-11T12:19:57.328Z,19.16
2017-05-11T12:21:06.282Z,19.11
2017-05-11T12:22:15.392Z,19.22
2017-05-11T12:23:24.402Z,19.19
2017-05-11T12:24:33.618Z,19.25
2017-05-11T12:25:42.579Z,19.23
2017-05-11T12:26:51.543Z,19.11
2017-05-11T12:28:00.510Z,19.25
2017-05-11T12:29:09.473Z,19.14
2017-05-11T12:30:18.685Z,19.28
2017-05-11T12:31:27.646Z,19.31
2017-05-11T12:32:36.611Z,19.23
2017-05-11T12:33:45.575Z,19.29
2017-05-11T12:34:54.536Z,19.26
2017-05-11T12:36:03.764Z,19.26
2017-05-11T12:37:12.738Z,19.28
2017-05-11T12:38:21.700Z,19.29
2017-05-11T12:39:30.660Z,19.41
2017-05-11T12:40:39.709Z,19.37
2017-05-11T12:41:48.923Z,19.39
2017-05-11T12:42:57.884Z,19.44
2017-05-11T12:44:06.846Z,19.44
2017-05-11T12:45:15.802Z,19.44
2017-05-11T12:46:25.090Z,19.54
2017-05-11T12:47:34.301Z,19.43
2017-05-11T12:48:43.260Z,19.44
2017-05-11T12:49:52.223Z,19.39
2017-05-11T12:51:01.182Z,19.37
2017-05-11T12:52:10.144Z,19.39
2017-05-11T12:53:19.497Z,19.41
2017-05-11T12:54:28.456Z,19.39
2017-05-11T12:55:37.414Z,19.33
2017-05-11T12:56:46.372Z,19.33
2017-05-11T12:57:55.334Z,19.33
2017-05-11T12:59:04.546Z,19.43
2017-05-11T13:00:13.508Z,19.5
2017-05-11T13:01:22.559Z,19.54
2017-05-11T13:02:31.523Z,19.66
2017-05-11T13:03:40.820Z,19.56
2017-05-11T13:04:50.029Z,19.65
2017-05-11T13:05:59.076Z,19.63
2017-05-11T13:07:08.045Z,19.59
2017-05-11T13:08:17.004Z,19.55
2017-05-11T13:09:25.966Z,19.63
2017-05-11T13:10:35.177Z,19.59
2017-05-11T13:11:44.226Z,19.63
2017-05-11T13:12:53.512Z,19.69
2017-05-11T13:14:02.469Z,19.62
2017-05-11T13:15:11.773Z,19.63
2017-05-11T13:16:20.987Z,19.61
2017-05-11T13:17:29.962Z,19.56
2017-05-11T13:18:38.930Z,19.63
2017-05-11T13:19:47.896Z,19.68
2017-05-11T13:20:56.850Z,19.62
2017-05-11T13:22:06.067Z,19.62
2017-05-11T13:23:15.115Z,19.51
2017-05-11T13:24:24.072Z,19.65
2017-05-11T13:25:33.033Z,19.56
2017-05-11T13:26:42.082Z,19.63
2017-05-11T13:27:51.298Z,19.62
2017-05-11T13:29:00.260Z,19.73
2017-05-11T13:30:09.556Z,19.73
2017-05-11T13:31:18.518Z,19.73
2017-05-11T13:32:27.487Z,19.71
2017-05-11T13:33:36.713Z,19.73
2017-05-11T13:34:45.684Z,19.77
2017-05-11T13:35:54.643Z,19.78
2017-05-11T13:37:03.607Z,19.81
2017-05-11T13:38:12.570Z,19.91
2017-05-11T13:39:21.778Z,19.84
2017-05-11T13:40:30.740Z,19.83
2017-05-11T13:41:39.697Z,20.02
2017-05-11T13:42:48.749Z,20.02
2017-05-11T13:43:57.792Z,20.08
2017-05-11T13:45:07.021Z,20.13
2017-05-11T13:46:16.311Z,20.18
2017-05-11T13:47:25.277Z,20.2
2017-05-11T13:48:34.245Z,20.32
2017-05-11T13:49:43.297Z,20.31
2017-05-11T13:50:52.517Z,20.28
2017-05-11T13:52:01.487Z,20.29
2017-05-11T13:53:10.539Z,20.31
2017-05-11T13:54:19.513Z,20.33
2017-05-11T13:55:28.483Z,20.33
2017-05-11T13:56:37.697Z,20.36
2017-05-11T13:57:46.662Z,20.36
2017-05-11T13:58:55.670Z,20.39
2017-05-11T14:00:04.637Z,20.35
2017-05-11T14:01:13.604Z,20.38
2017-05-11T14:02:22.868Z,20.35
2017-05-11T14:03:31.925Z,20.33
2017-05-11T14:04:40.886Z,20.26
2017-05-11T14:05:49.852Z,20.28
2017-05-11T14:06:58.816Z,20.28
2017-05-11T14:08:08.041Z,20.26
2017-05-11T14:09:17.008Z,20.26
2017-05-11T14:10:25.970Z,20.24
2017-05-11T14:11:34.930Z,20.14
2017-05-11T14:12:43.894Z,20.17
2017-05-11T14:13:53.189Z,20.17
2017-05-11T14:15:02.160Z,20.17
2017-05-11T14:16:11.119Z,20.24
2017-05-11T14:17:20.210Z,20.24
2017-05-11T14:18:29.177Z,20.31
2017-05-11T14:19:38.473Z,20.35
2017-05-11T14:20:47.467Z,20.32
2017-05-11T14:21:56.434Z,20.42
2017-05-11T14:23:05.480Z,20.38
2017-05-11T14:24:14.446Z,20.39
2017-05-11T14:25:23.664Z,20.5
2017-05-11T14:26:32.720Z,20.41
2017-05-11T14:27:41.686Z,20.39
2017-05-11T14:28:50.644Z,20.43
2017-05-11T14:29:59.609Z,20.47
2017-05-11T14:31:08.824Z,20.51
2017-05-11T14:32:17.876Z,20.51
2017-05-11T14:33:26.837Z,20.48
2017-05-11T14:34:35.893Z,20.57
2017-05-11T14:35:44.868Z,20.51
2017-05-11T14:36:54.079Z,20.51
2017-05-11T14:38:03.053Z,20.48
2017-05-11T14:39:12.024Z,20.5
2017-05-11T14:40:20.993Z,20.47
2017-05-11T14:41:29.966Z,20.52
2017-05-11T14:42:39.182Z,20.48
2017-05-11T14:43:48.151Z,20.5
2017-05-11T14:44:57.118Z,20.51
2017-05-11T14:46:06.081Z,20.55
2017-05-11T14:47:15.040Z,20.5
2017-05-11T14:48:24.264Z,20.62
2017-05-11T14:49:33.228Z,20.52
2017-05-11T14:50:42.190Z,20.61
2017-05-11T14:51:51.474Z,20.58
2017-05-11T14:53:00.476Z,20.61
2017-05-11T14:54:09.696Z,20.54
2017-05-11T14:55:18.662Z,20.61
2017-05-11T14:56:27.627Z,20.55
2017-05-11T14:57:36.588Z,20.59
2017-05-11T14:58:45.542Z,20.57
2017-05-11T14:59:54.753Z,20.59
2017-05-11T15:01:03.714Z,20.51